Time;durP1;ratioP1;P1;durP2;ratioP2;P2;SDS_P1;SDS_P2;PMS_P1;PMS_P2;Temp;Humidity;BMP_temperature;BMP_pressure;BME280_temperature;BME280_humidity;BME280_pressure;Samples;Min_cycle;Max_cycle;Signal;HPM_P1;HPM_P2
2024/04/16 00:01:20;;;;;;;;;23.40;21.80;;;;;15.64;100.00;97131.81;6402936;27;94910;-61
2024/04/16 00:04:26;;;;;;;;;25.00;20.60;;;;;15.66;100.00;97141.28;6372075;27;97431;-61
2024/04/16 00:07:31;;;;;;;;;22.00;20.00;;;;;15.66;100.00;97141.28;6371841;27;96492;-61
2024/04/16 00:10:34;;;;;;;;;22.40;18.00;;;;;15.68;100.00;97152.66;6373660;27;96731;-61
2024/04/16 00:13:42;;;;;;;;;17.60;16.00;;;;;15.58;100.00;97141.97;6402688;27;94079;-61
2024/04/16 00:17:01;;;;;;;;;16.00;15.00;;;;;15.66;100.00;97138.56;6401042;27;94379;-60
2024/04/16 00:20:07;;;;;;;;;16.00;14.60;;;;;15.63;100.00;97132.91;6371534;27;94770;-61
2024/04/16 00:23:10;;;;;;;;;15.40;13.00;;;;;15.63;100.00;97135.63;6402786;27;95256;-61
2024/04/16 00:26:15;;;;;;;;;14.60;12.00;;;;;15.56;100.00;97131.38;6410297;27;94382;-61
2024/04/16 00:29:21;;;;;;;;;12.00;10.00;;;;;15.45;100.00;97134.50;6408799;27;96506;-61
2024/04/16 00:32:26;;;;;;;;;9.00;9.00;;;;;15.49;100.00;97128.19;6416127;27;94569;-60
2024/04/16 00:35:30;;;;;;;;;8.50;8.00;;;;;15.39;100.00;97141.16;6415047;27;94335;-61
2024/04/16 00:38:35;;;;;;;;;11.00;9.00;;;;;15.47;100.00;97148.59;6415086;27;94382;-61
2024/04/16 00:41:39;;;;;;;;;9.60;8.00;;;;;15.51;100.00;97150.47;6413999;27;94373;-61
2024/04/16 00:44:47;;;;;;;;;7.20;6.20;;;;;15.40;100.00;97148.16;6415638;27;94329;-60
2024/04/16 00:47:50;;;;;;;;;8.40;7.60;;;;;15.35;100.00;97159.09;6409635;27;96804;-61
2024/04/16 00:50:57;;;;;;;;;9.60;8.00;;;;;15.35;100.00;97157.19;6415081;27;96677;-60
2024/04/16 00:54:00;;;;;;;;;7.00;6.50;;;;;15.35;100.00;97149.06;6382581;27;94607;-61
2024/04/16 00:57:06;;;;;;;;;10.00;7.00;;;;;15.37;100.00;97130.56;6424517;27;96704;-61
2024/04/16 01:00:12;;;;;;;;;5.75;5.00;;;;;15.41;100.00;97115.28;6463466;21;94801;-60
2024/04/16 01:03:17;;;;;;;;;7.00;6.00;;;;;15.37;100.00;97113.47;6339181;27;96051;-61
2024/04/16 01:06:20;;;;;;;;;7.40;6.00;;;;;15.37;100.00;97114.28;6408201;27;95305;-62
2024/04/16 01:09:25;;;;;;;;;6.00;5.25;;;;;15.48;100.00;97102.16;6412878;27;94847;-61
2024/04/16 01:12:31;;;;;;;;;5.00;4.00;;;;;15.47;100.00;97097.81;6378478;27;94456;-61
2024/04/16 01:15:37;;;;;;;;;5.00;5.00;;;;;15.55;100.00;97093.66;6342911;27;96509;-61
2024/04/16 01:18:42;;;;;;;;;5.00;4.40;;;;;15.66;100.00;97076.09;6399317;27;94646;-61
2024/04/16 01:21:45;;;;;;;;;6.00;5.25;;;;;15.73;100.00;97073.00;6380924;27;94687;-61
2024/04/16 01:24:53;;;;;;;;;5.00;4.00;;;;;15.73;100.00;97073.00;6338536;27;96357;-61
2024/04/16 01:27:58;;;;;;;;;5.00;4.00;;;;;15.70;100.00;97059.97;6334299;27;94673;-61
2024/04/16 01:31:01;;;;;;;;;4.00;4.00;;;;;15.76;100.00;97064.22;6298615;27;94600;-62
2024/04/16 01:34:07;;;;;;;;;4.40;4.00;;;;;15.80;100.00;97060.63;6349506;27;94391;-61
2024/04/16 01:37:10;;;;;;;;;5.00;4.00;;;;;15.89;100.00;97056.09;6345049;27;94446;-58
2024/04/16 01:40:18;;;;;;;;;3.60;3.60;;;;;15.83;100.00;97048.34;6298409;27;94425;-57
2024/04/16 01:43:21;;;;;;;;;4.00;4.00;;;;;16.11;100.00;97057.34;6333872;27;94849;-58
2024/04/16 01:46:26;;;;;;;;;3.00;2.60;;;;;16.16;100.00;97054.50;6306086;27;97371;-58
2024/04/16 01:49:30;;;;;;;;;3.00;3.00;;;;;16.07;100.00;97053.59;6310540;27;97424;-59
2024/04/16 01:52:35;;;;;;;;;4.00;3.00;;;;;16.14;100.00;97101.03;6370055;27;94722;-57
2024/04/16 01:55:40;;;;;;;;;3.00;3.00;;;;;16.24;100.00;97103.53;6340671;27;96466;-60
2024/04/16 01:58:46;;;;;;;;;5.00;4.00;;;;;16.28;100.00;97085.50;6368421;27;96517;-58
2024/04/16 02:01:49;;;;;;;;;3.00;3.00;;;;;16.34;100.00;97084.31;6373461;27;94443;-58
2024/04/16 02:04:54;;;;;;;;;4.50;4.00;;;;;16.34;100.00;97097.09;6345224;27;94690;-59
2024/04/16 02:08:00;;;;;;;;;6.60;6.00;;;;;16.41;100.00;97081.22;6369542;27;94972;-59
2024/04/16 02:11:05;;;;;;;;;8.60;6.00;;;;;16.36;100.00;97059.56;6351759;27;94704;-58
2024/04/16 02:14:11;;;;;;;;;6.80;6.80;;;;;16.38;100.00;97077.16;6333625;27;94452;-58
2024/04/16 02:17:14;;;;;;;;;8.75;7.75;;;;;16.33;100.00;97082.69;6334176;27;94438;-58
2024/04/16 02:20:19;;;;;;;;;7.75;7.00;;;;;16.25;100.00;97117.94;6333428;27;94557;-59
2024/04/16 02:23:22;;;;;;;;;8.00;7.00;;;;;16.02;100.00;97120.56;6333561;27;94624;-57
2024/04/16 02:26:30;;;;;;;;;4.40;4.40;;;;;15.83;100.00;97117.06;6341583;27;95221;-58
2024/04/16 02:29:33;;;;;;;;;3.00;3.00;;;;;15.78;100.00;97095.44;6340682;27;96565;-58
2024/04/16 02:32:38;;;;;;;;;2.40;2.00;;;;;15.53;100.00;97088.53;6279081;27;95753;-58
2024/04/16 02:35:41;;;;;;;;;2.00;2.00;;;;;15.51;100.00;97096.16;6331146;27;94678;-58
2024/04/16 02:38:47;;;;;;;;;2.00;2.00;;;;;15.43;100.00;97121.25;6304122;27;96629;-58
2024/04/16 02:41:53;;;;;;;;;3.00;2.00;;;;;15.44;100.00;97139.13;6329819;27;94708;-58
2024/04/16 02:44:58;;;;;;;;;2.50;2.50;;;;;15.21;100.00;97126.47;6306946;27;96671;-58
2024/04/16 02:48:01;;;;;;;;;2.00;2.00;;;;;15.27;100.00;97136.16;6282330;27;94854;-64
2024/04/16 02:51:07;;;;;;;;;0.00;0.00;;;;;15.23;100.00;97148.69;6322632;27;96730;-64
2024/04/16 02:54:10;;;;;;;;;1.00;0.60;;;;;15.06;100.00;97164.66;6349341;27;94330;-63
2024/04/16 02:57:18;;;;;;;;;1.00;1.00;;;;;14.89;100.00;97159.75;6344339;27;94971;-64
2024/04/16 03:00:20;;;;;;;;;1.00;1.00;;;;;14.76;100.00;97156.94;6348182;27;96654;-64
2024/04/16 03:03:26;;;;;;;;;1.00;1.00;;;;;14.65;100.00;97132.66;6315655;27;94407;-64
2024/04/16 03:06:29;;;;;;;;;1.20;1.00;;;;;14.63;100.00;97151.13;6309145;27;94388;-64
2024/04/16 03:09:34;;;;;;;;;2.00;2.00;;;;;14.60;100.00;97151.72;6309425;27;94926;-62
2024/04/16 03:12:39;;;;;;;;;0.20;0.20;;;;;14.58;100.00;97136.81;6333843;27;96543;-64
2024/04/16 03:15:45;;;;;;;;;2.00;2.00;;;;;14.49;100.00;97152.91;6308228;27;94508;-64
2024/04/16 03:18:48;;;;;;;;;1.00;1.00;;;;;14.41;100.00;97171.72;6305997;27;96537;-64
2024/04/16 03:21:53;;;;;;;;;1.00;1.00;;;;;14.42;100.00;97147.00;6334486;27;97505;-64
2024/04/16 03:25:22;;;;;;;;;1.00;1.00;;;;;14.39;100.00;97149.50;6334899;27;94364;-64
2024/04/16 03:28:31;;;;;;;;;0.00;0.00;;;;;14.36;100.00;97145.47;6340465;27;94913;-63
2024/04/16 03:31:37;;;;;;;;;1.00;1.00;;;;;14.44;100.00;97142.13;6322742;27;94575;-64
2024/04/16 03:34:40;;;;;;;;;1.00;1.00;;;;;14.30;100.00;97144.69;6307272;27;94384;-64
2024/04/16 03:37:48;;;;;;;;;1.00;1.00;;;;;14.18;100.00;97141.56;6337586;27;94390;-64
2024/04/16 03:40:58;;;;;;;;;1.00;1.00;;;;;14.18;100.00;97135.31;6345956;27;94456;-65
2024/04/16 03:44:06;;;;;;;;;1.00;1.00;;;;;14.27;100.00;97134.41;6309732;27;94428;-64
2024/04/16 03:47:10;;;;;;;;;1.00;1.00;;;;;14.28;100.00;97129.81;6338664;27;94345;-62
2024/04/16 03:50:15;;;;;;;;;2.00;1.40;;;;;14.22;100.00;97115.50;6308044;27;96622;-64
2024/04/16 03:53:18;;;;;;;;;1.00;1.00;;;;;14.19;100.00;97121.50;6284394;27;94413;-63
2024/04/16 03:56:24;;;;;;;;;1.00;1.00;;;;;14.12;100.00;97131.06;6335049;27;95091;-64
2024/04/16 03:59:37;;;;;;;;;1.00;1.00;;;;;14.12;100.00;97128.38;6321153;27;94482;-64
2024/04/16 04:02:44;;;;;;;;;2.00;2.00;;;;;14.06;100.00;97129.50;6307539;27;94511;-63
2024/04/16 04:05:50;;;;;;;;;1.80;1.80;;;;;14.13;100.00;97138.09;6317925;27;94344;-64
2024/04/16 04:08:53;;;;;;;;;2.00;2.00;;;;;14.17;100.00;97148.06;6306005;27;96540;-64
2024/04/16 04:11:59;;;;;;;;;1.00;1.00;;;;;14.19;100.00;97143.19;6334713;27;97270;-63
2024/04/16 04:15:08;;;;;;;;;1.00;1.00;;;;;14.15;100.00;97138.63;6360551;27;94839;-64
2024/04/16 04:18:13;;;;;;;;;2.00;2.00;;;;;14.31;100.00;97156.34;6319988;27;94834;-63
2024/04/16 04:21:19;;;;;;;;;2.00;1.00;;;;;14.38;100.00;97172.28;6337776;27;94318;-64
2024/04/16 04:24:22;;;;;;;;;2.00;2.00;;;;;14.39;100.00;97185.56;6331672;27;94454;-64
2024/04/16 04:27:41;;;;;;;;;2.00;2.00;;;;;14.46;100.00;97191.47;6335182;27;94609;-64
2024/04/16 04:30:51;;;;;;;;;3.00;2.75;;;;;14.36;100.00;97190.72;6360952;27;96509;-63
2024/04/16 04:33:56;;;;;;;;;2.00;2.00;;;;;14.30;100.00;97198.09;6356125;27;95044;-64
2024/04/16 04:37:01;;;;;;;;;1.00;1.00;;;;;14.36;100.00;97180.72;6356303;27;95162;-64
2024/04/16 04:40:07;;;;;;;;;2.00;2.00;;;;;14.19;100.00;97164.84;6355694;27;94709;-64
2024/04/16 04:43:12;;;;;;;;;3.00;3.00;;;;;14.41;100.00;97224.03;6347238;27;94403;-65
2024/04/16 04:46:21;;;;;;;;;3.00;3.00;;;;;14.46;100.00;97225.91;6320631;27;94375;-63
2024/04/16 04:49:24;;;;;;;;;2.00;2.00;;;;;14.41;100.00;97224.03;6331205;27;96608;-65
2024/04/16 04:52:30;;;;;;;;;2.00;2.00;;;;;14.42;100.00;97208.56;6330533;27;94401;-64
2024/04/16 04:55:35;;;;;;;;;1.00;1.00;;;;;14.33;100.00;97222.72;6338134;27;94358;-63
2024/04/16 04:58:41;;;;;;;;;2.00;2.00;;;;;14.41;100.00;97225.94;6338276;27;94853;-63
2024/04/16 05:01:47;;;;;;;;;1.00;1.00;;;;;14.33;100.00;97230.03;6337269;27;94412;-62
2024/04/16 05:04:53;;;;;;;;;1.00;1.00;;;;;14.44;100.00;97252.47;6299368;27;94380;-63
2024/04/16 05:07:56;;;;;;;;;1.00;1.00;;;;;14.39;100.00;97255.22;6306758;27;94551;-58
2024/04/16 05:11:01;;;;;;;;;2.00;2.00;;;;;14.41;100.00;97253.06;6313942;27;96626;-58
2024/04/16 05:14:09;;;;;;;;;2.00;2.00;;;;;14.40;100.00;97267.69;6281340;27;94453;-58
2024/04/16 05:17:14;;;;;;;;;2.00;2.00;;;;;14.43;100.00;97267.94;6307844;27;94399;-58
2024/04/16 05:20:20;;;;;;;;;3.00;2.00;;;;;14.35;100.00;97265.00;6305480;27;94329;-57
2024/04/16 05:23:26;;;;;;;;;2.20;2.00;;;;;14.28;100.00;97268.84;6319528;27;94285;-58
2024/04/16 05:26:29;;;;;;;;;2.00;1.00;;;;;14.27;100.00;97258.28;6258852;27;94743;-57
2024/04/16 05:29:35;;;;;;;;;2.00;2.00;;;;;14.26;100.00;97267.53;6313484;27;96341;-58
2024/04/16 05:32:40;;;;;;;;;3.25;2.00;;;;;14.18;100.00;97263.50;6296653;27;96464;-58
2024/04/16 05:35:46;;;;;;;;;1.60;1.60;;;;;14.26;100.00;97262.91;6260662;27;95666;-58
2024/04/16 05:38:49;;;;;;;;;3.00;3.00;;;;;14.30;100.00;97244.97;6284397;27;94846;-57
2024/04/16 05:41:54;;;;;;;;;2.80;2.20;;;;;14.32;100.00;97250.91;6312792;27;96583;-60
2024/04/16 05:44:57;;;;;;;;;3.00;2.80;;;;;14.42;100.00;97262.78;6315716;27;95029;-57
2024/04/16 05:48:06;;;;;;;;;3.00;3.00;;;;;14.45;100.00;97262.22;6286842;27;94357;-57
2024/04/16 05:51:13;;;;;;;;;3.00;3.00;;;;;14.54;100.00;97274.88;6318100;27;94671;-57
2024/04/16 05:54:19;;;;;;;;;3.00;2.50;;;;;14.54;100.00;97284.91;6354837;27;96479;-57
2024/04/16 05:57:22;;;;;;;;;3.00;3.00;;;;;14.35;100.00;97287.50;6330805;27;94711;-58
2024/04/16 06:00:28;;;;;;;;;2.00;2.00;;;;;14.28;100.00;97292.44;6337753;27;94441;-57
2024/04/16 06:03:38;;;;;;;;;2.00;2.00;;;;;14.27;100.00;97294.31;6374190;27;94823;-58
2024/04/16 06:06:44;;;;;;;;;2.75;2.75;;;;;14.29;100.00;97318.44;6340944;27;94676;-57
2024/04/16 06:09:49;;;;;;;;;2.50;2.50;;;;;14.31;100.00;97308.16;6344606;27;94858;-57
2024/04/16 06:12:52;;;;;;;;;2.00;2.00;;;;;14.30;100.00;97288.34;6343970;27;95670;-57
2024/04/16 06:15:58;;;;;;;;;3.00;3.00;;;;;14.25;100.00;97314.69;6318200;27;94471;-62
2024/04/16 06:19:04;;;;;;;;;2.60;2.60;;;;;13.42;100.00;97206.41;6340756;27;94775;-62
2024/04/16 06:22:09;;;;;;;;;3.00;2.40;;;;;14.14;100.00;97326.69;6354565;27;94545;-62
2024/04/16 06:25:12;;;;;;;;;5.00;3.00;;;;;14.07;100.00;97348.72;6313147;27;95861;-62
2024/04/16 06:28:19;;;;;;;;;3.00;2.80;;;;;14.06;100.00;97338.13;6315707;27;94945;-62
2024/04/16 06:31:21;;;;;;;;;3.00;3.00;;;;;13.86;100.00;97312.81;6348324;27;95298;-62
2024/04/16 06:34:29;;;;;;;;;3.00;3.00;;;;;14.00;100.00;97331.94;6362063;27;94651;-63
2024/04/16 06:37:35;;;;;;;;;2.00;2.00;;;;;14.09;100.00;97351.13;6334844;27;94840;-62
2024/04/16 06:40:38;;;;;;;;;2.00;2.00;;;;;14.03;100.00;97358.47;6363968;27;94519;-62
2024/04/16 06:43:44;;;;;;;;;2.60;2.00;;;;;14.03;100.00;97344.09;6363393;27;94595;-62
2024/04/16 06:46:46;;;;;;;;;2.00;2.00;;;;;13.93;100.00;97342.25;6331929;27;94908;-63
2024/04/16 06:49:55;;;;;;;;;2.00;2.00;;;;;13.89;100.00;97371.81;6307404;27;94671;-62
2024/04/16 06:53:00;;;;;;;;;3.00;3.00;;;;;13.98;100.00;97384.78;6363233;27;94526;-62
2024/04/16 06:56:05;;;;;;;;;3.33;3.00;;;;;13.95;100.00;97393.47;6334738;27;94649;-62
2024/04/16 06:59:14;;;;;;;;;3.00;3.00;;;;;13.71;100.00;97404.16;6359631;27;96821;-62
2024/04/16 07:02:17;;;;;;;;;4.00;4.00;;;;;13.48;100.00;97385.84;6358708;27;95376;-62
2024/04/16 07:05:25;;;;;;;;;3.00;3.00;;;;;13.65;100.00;97421.50;6334207;27;94269;-62
2024/04/16 07:08:31;;;;;;;;;3.60;3.00;;;;;13.50;100.00;97410.72;6326378;27;96677;-61
2024/04/16 07:11:34;;;;;;;;;4.00;4.00;;;;;13.36;100.00;97400.50;6360472;27;94943;-63
2024/04/16 07:14:40;;;;;;;;;3.00;3.00;;;;;13.45;100.00;97370.94;6341071;27;94665;-62
2024/04/16 07:17:42;;;;;;;;;5.20;5.20;;;;;13.50;100.00;97370.13;6331479;27;94567;-62
2024/04/16 07:20:54;;;;;;;;;4.00;3.80;;;;;13.56;100.00;97369.84;6298740;27;96662;-62
2024/04/16 07:23:57;;;;;;;;;4.00;4.00;;;;;13.49;100.00;97368.53;6332248;27;94371;-62
2024/04/16 07:27:02;;;;;;;;;3.60;3.60;;;;;13.66;100.00;97358.16;6353190;27;94846;-64
2024/04/16 07:30:06;;;;;;;;;4.00;4.00;;;;;13.66;100.00;97360.84;6351391;27;96566;-65
2024/04/16 07:33:13;;;;;;;;;4.00;3.00;;;;;13.73;100.00;97378.41;6351086;27;94545;-65
2024/04/16 07:36:18;;;;;;;;;3.00;3.00;;;;;13.77;100.00;97375.97;6354892;27;96749;-65
2024/04/16 07:39:24;;;;;;;;;4.00;3.00;;;;;13.81;100.00;97383.25;6351446;27;94741;-65
2024/04/16 07:42:27;;;;;;;;;4.00;4.00;;;;;13.79;100.00;97393.53;6329341;27;96387;-65
2024/04/16 07:45:32;;;;;;;;;4.00;4.00;;;;;13.87;100.00;97421.97;6346721;27;97012;-65
2024/04/16 07:48:35;;;;;;;;;2.00;2.00;;;;;13.78;100.00;97431.75;6347974;27;94678;-65
2024/04/16 07:51:43;;;;;;;;;3.00;2.40;;;;;13.79;100.00;97457.75;6342944;27;94680;-64
2024/04/16 07:54:46;;;;;;;;;3.00;3.00;;;;;13.73;100.00;97429.84;6360765;27;96529;-65
2024/04/16 07:57:52;;;;;;;;;3.25;3.25;;;;;13.73;100.00;97443.41;6358452;27;94396;-64
2024/04/16 08:00:55;;;;;;;;;3.00;3.00;;;;;13.80;100.00;97468.31;6372698;27;96782;-64
2024/04/16 08:04:00;;;;;;;;;4.00;4.00;;;;;13.87;100.00;97476.16;6318605;27;94732;-64
2024/04/16 08:07:06;;;;;;;;;4.00;4.00;;;;;13.84;100.00;97473.97;6346737;27;94372;-63
2024/04/16 08:10:11;;;;;;;;;4.00;4.00;;;;;13.92;100.00;97494.28;6345986;27;94374;-63
2024/04/16 08:13:14;;;;;;;;;4.20;3.20;;;;;13.79;100.00;97498.38;6317704;27;96358;-64
2024/04/16 08:16:20;;;;;;;;;4.50;4.50;;;;;13.69;100.00;97506.53;6318841;27;94594;-64
2024/04/16 08:19:26;;;;;;;;;5.00;5.00;;;;;13.78;100.00;97502.97;6371594;27;97116;-64
2024/04/16 08:22:32;;;;;;;;;4.00;3.00;;;;;13.61;100.00;97512.50;6373197;27;94333;-64
2024/04/16 08:25:37;;;;;;;;;3.00;3.00;;;;;13.67;100.00;97501.41;6319206;27;94902;-63
2024/04/16 08:28:43;;;;;;;;;4.00;3.25;;;;;13.58;100.00;97505.75;6319759;27;94389;-64
2024/04/16 08:31:46;;;;;;;;;4.00;4.00;;;;;13.58;100.00;97483.28;6343509;27;96574;-64
2024/04/16 08:34:51;;;;;;;;;5.00;3.00;;;;;13.55;100.00;97462.16;6344938;27;94358;-64
2024/04/16 08:37:57;;;;;;;;;3.50;3.50;;;;;13.73;100.00;97489.44;6517434;22;96449;-64
2024/04/16 08:41:05;;;;;;;;;2.20;2.20;;;;;13.88;100.00;97481.25;6426663;27;96688;-64
2024/04/16 08:44:10;;;;;;;;;3.00;3.00;;;;;14.09;100.00;97464.94;6399132;27;95582;-64
2024/04/16 08:47:18;;;;;;;;;2.00;2.00;;;;;14.21;100.00;97482.50;6440090;22;95899;-63
2024/04/16 08:50:22;;;;;;;;;5.40;5.00;;;;;14.39;100.00;97502.75;6384802;27;96737;-65
2024/04/16 08:53:31;;;;;;;;;4.25;4.00;;;;;14.58;100.00;97520.00;6389907;27;94391;-64
2024/04/16 09:00:21;;;;;;;;;4.00;3.60;;;;;14.56;100.00;97484.19;6480224;22;94739;-85
2024/04/16 09:03:26;;;;;;;;;3.00;3.00;;;;;14.65;100.00;97531.34;6392476;27;94399;-86
2024/04/16 09:06:32;;;;;;;;;4.00;4.00;;;;;14.30;100.00;97488.94;6359793;27;94643;-86
2024/04/16 09:09:38;;;;;;;;;2.00;2.00;;;;;13.75;100.00;97422.28;6398296;27;94380;-86
2024/04/16 09:12:45;;;;;;;;;2.00;2.00;;;;;14.28;100.00;97525.53;6371826;27;94550;-86
2024/04/16 09:15:49;;;;;;;;;4.00;3.00;;;;;14.02;100.00;97519.44;6415192;22;95394;-86
2024/04/16 09:18:55;;;;;;;;;3.00;3.00;;;;;13.96;100.00;97495.34;6356434;27;94789;-87
2024/04/16 09:21:59;;;;;;;;;3.00;3.00;;;;;14.05;100.00;97509.94;6348300;27;95069;-86
2024/04/16 09:25:11;;;;;;;;;5.00;4.00;;;;;13.91;100.00;97498.88;6352483;27;95214;-86
2024/04/16 09:28:14;;;;;;;;;2.00;2.00;;;;;13.94;100.00;97501.03;6348399;27;94490;-86
2024/04/16 09:31:23;;;;;;;;;2.00;2.00;;;;;14.21;100.00;97515.03;6347493;27;94510;-86
2024/04/16 09:34:28;;;;;;;;;3.00;3.00;;;;;14.37;100.00;97512.28;6373945;27;94403;-86
2024/04/16 09:37:34;;;;;;;;;2.40;2.00;;;;;13.97;100.00;97453.63;6322219;27;94361;-86
2024/04/16 09:40:49;;;;;;;;;2.00;2.00;;;;;14.43;100.00;97514.66;6372422;22;96790;-63
2024/04/16 09:43:55;;;;;;;;;2.00;2.00;;;;;14.31;100.00;97509.56;6426156;27;94757;-63
2024/04/16 09:47:02;;;;;;;;;2.00;2.00;;;;;14.42;100.00;97513.03;6426687;27;96547;-64
2024/04/16 09:50:06;;;;;;;;;3.60;3.40;;;;;14.28;100.00;97498.44;6401665;27;94853;-63
2024/04/16 09:53:32;;;;;;;;;2.00;2.00;;;;;14.31;100.00;97500.59;6394741;27;94358;-65
2024/04/16 09:56:39;;;;;;;;;2.00;2.00;;;;;14.67;100.00;97512.06;6381326;27;94912;-63
2024/04/16 09:59:47;;;;;;;;;2.00;2.00;;;;;14.77;100.00;97503.03;6392989;27;94355;-63
2024/04/16 10:02:54;;;;;;;;;3.00;3.00;;;;;15.01;100.00;97490.38;6405413;22;94905;-88
2024/04/16 10:06:00;;;;;;;;;2.00;1.25;;;;;14.89;100.00;97452.78;6345761;27;95118;-89
2024/04/16 10:09:03;;;;;;;;;2.40;2.00;;;;;15.16;100.00;97471.25;6351175;27;95176;-90
2024/04/16 10:12:13;;;;;;;;;2.25;2.00;;;;;15.18;100.00;97497.03;6325060;27;94918;-89
2024/04/16 10:15:19;;;;;;;;;1.00;1.00;;;;;15.06;100.00;97483.00;6328046;27;95073;-89
2024/04/16 10:18:24;;;;;;;;;3.00;3.00;;;;;15.18;100.00;97496.22;6356477;27;94324;-89
2024/04/16 10:21:27;;;;;;;;;2.00;2.00;;;;;15.33;100.00;97506.13;6311971;27;94951;-89
2024/04/16 10:24:33;;;;;;;;;3.00;2.00;;;;;15.04;100.00;97484.41;6304026;27;94885;-88
2024/04/16 10:27:40;;;;;;;;;2.00;2.00;;;;;15.24;100.00;97554.81;6339425;27;94394;-89
2024/04/16 10:30:47;;;;;;;;;2.00;2.00;;;;;14.94;100.00;97538.75;6314066;27;94699;-89
2024/04/16 10:33:50;;;;;;;;;1.80;1.00;;;;;14.67;100.00;97523.72;6288662;27;94671;-88
2024/04/16 10:36:58;;;;;;;;;2.00;2.00;;;;;14.53;100.00;97543.63;6303557;27;94883;-88
2024/04/16 10:40:01;;;;;;;;;3.00;2.25;;;;;14.02;100.00;97486.13;6303001;27;94920;-90
2024/04/16 10:43:11;;;;;;;;;2.00;2.00;;;;;14.37;100.00;97518.47;6291649;27;96194;-89
2024/04/16 10:46:15;;;;;;;;;1.60;1.00;;;;;14.52;100.00;97526.53;6342084;27;94667;-88
2024/04/16 10:49:22;;;;;;;;;1.40;1.40;;;;;14.74;100.00;97545.94;6376924;22;95185;-64
2024/04/16 10:52:28;;;;;;;;;1.00;1.00;;;;;15.01;100.00;97540.03;6347030;27;96723;-64
2024/04/16 10:55:34;;;;;;;;;2.00;2.00;;;;;15.13;100.00;97535.09;6349736;27;94383;-64
2024/04/16 10:58:40;;;;;;;;;1.60;1.00;;;;;15.47;100.00;97545.09;6356205;27;94327;-61
2024/04/16 11:01:47;;;;;;;;;1.75;1.00;;;;;15.79;100.00;97544.53;6322894;27;96929;-61
2024/04/16 11:04:50;;;;;;;;;2.00;2.00;;;;;15.57;100.00;97537.72;6322902;27;94591;-61
2024/04/16 11:07:56;;;;;;;;;2.00;2.00;;;;;15.33;100.00;97541.44;6324596;27;94769;-61
2024/04/16 11:10:59;;;;;;;;;2.00;2.00;;;;;15.34;100.00;97524.88;6323540;27;96762;-63
2024/04/16 11:14:09;;;;;;;;;2.00;2.00;;;;;15.42;100.00;97515.28;6347324;27;96617;-62
2024/04/16 11:17:12;;;;;;;;;3.00;3.00;;;;;15.84;100.00;97517.31;6308966;27;94636;-62
2024/04/16 11:20:18;;;;;;;;;1.60;1.60;;;;;16.46;100.00;97497.25;6314802;27;94759;-62
2024/04/16 11:23:22;;;;;;;;;2.00;2.00;;;;;16.98;100.00;97511.75;6323966;27;94646;-62
2024/04/16 11:26:27;;;;;;;;;1.50;1.50;;;;;17.41;100.00;97502.31;6321766;27;94592;-63
2024/04/16 11:29:33;;;;;;;;;3.00;3.00;;;;;17.70;100.00;97510.25;6349404;27;94356;-62
2024/04/16 11:32:40;;;;;;;;;2.00;2.00;;;;;17.60;100.00;97508.53;6327620;27;94377;-62
2024/04/16 11:35:43;;;;;;;;;2.00;2.00;;;;;17.50;100.00;97516.03;6279453;27;96661;-62
2024/04/16 11:38:48;;;;;;;;;2.00;2.00;;;;;17.37;100.00;97530.44;6310207;27;94870;-62
2024/04/16 11:41:51;;;;;;;;;2.00;2.00;;;;;17.08;100.00;97538.81;6344987;27;94475;-62
2024/04/16 11:44:59;;;;;;;;;1.00;1.00;;;;;16.67;100.00;97525.00;6323453;27;94334;-62
2024/04/16 11:48:02;;;;;;;;;2.00;2.00;;;;;16.58;100.00;97519.41;6338759;27;94807;-62
2024/04/16 11:51:09;;;;;;;;;1.00;1.00;;;;;16.30;100.00;97512.97;6361546;27;94552;-62
2024/04/16 11:54:12;;;;;;;;;2.00;2.00;;;;;15.70;100.00;97483.78;6335575;27;94309;-62
2024/04/16 11:57:17;;;;;;;;;2.00;2.00;;;;;15.72;100.00;97552.25;6321565;27;95854;-62
2024/04/16 12:00:22;;;;;;;;;2.00;2.00;;;;;15.66;100.00;97556.09;6316839;27;95157;-62
2024/04/16 12:03:28;;;;;;;;;1.60;1.60;;;;;15.70;100.00;97538.94;6302654;27;94660;-62
2024/04/16 12:06:32;;;;;;;;;1.00;1.00;;;;;15.84;100.00;97529.00;6289067;27;94881;-62
2024/04/16 12:09:37;;;;;;;;;2.40;2.40;;;;;15.94;100.00;97537.03;6304955;27;94555;-62
2024/04/16 12:12:43;;;;;;;;;2.00;2.00;;;;;16.09;100.00;97535.25;6310953;27;97073;-62
2024/04/16 12:15:49;;;;;;;;;2.60;2.00;;;;;15.87;100.00;97524.91;6299116;27;96914;-61
2024/04/16 12:18:54;;;;;;;;;2.20;2.20;;;;;15.71;100.00;97535.13;6320076;27;94685;-62
2024/04/16 12:21:57;;;;;;;;;3.00;3.00;;;;;15.71;100.00;97540.56;6334166;27;96987;-62
2024/04/16 12:25:04;;;;;;;;;3.00;2.00;;;;;15.56;100.00;97543.41;6325971;27;95770;-62
2024/04/16 12:28:09;;;;;;;;;2.25;2.00;;;;;15.67;100.00;97527.84;6309569;27;94863;-62
2024/04/16 12:31:17;;;;;;;;;3.00;3.00;;;;;15.79;100.00;97511.94;6291917;27;94354;-62
2024/04/16 12:34:23;;;;;;;;;3.00;3.00;;;;;15.87;100.00;97503.16;6314852;27;94709;-61
2024/04/16 12:37:26;;;;;;;;;3.00;3.00;;;;;15.75;100.00;97481.81;6336013;27;96789;-61
2024/04/16 12:40:32;;;;;;;;;2.00;2.00;;;;;15.67;100.00;97468.06;6309866;27;94530;-62
2024/04/16 12:43:35;;;;;;;;;3.20;3.20;;;;;15.73;100.00;97472.34;6311578;27;96517;-61
2024/04/16 12:46:43;;;;;;;;;2.00;2.00;;;;;15.74;100.00;97499.22;6308228;27;94288;-63
2024/04/16 12:49:46;;;;;;;;;3.00;2.00;;;;;15.62;100.00;97476.28;6328928;27;94937;-60
2024/04/16 12:52:52;;;;;;;;;2.00;2.00;;;;;15.67;100.00;97470.78;6351513;27;96593;-60
2024/04/16 12:55:55;;;;;;;;;3.00;3.00;;;;;15.58;100.00;97478.75;6333017;27;94308;-60
2024/04/16 12:59:01;;;;;;;;;1.80;1.80;;;;;15.59;100.00;97492.03;6336691;27;94772;-60
2024/04/16 13:02:06;;;;;;;;;3.33;3.33;;;;;15.75;100.00;97506.28;6329552;27;97293;-60
2024/04/16 13:05:13;;;;;;;;;1.60;1.60;;;;;15.78;100.00;97497.56;6343108;27;94837;-61
2024/04/16 13:08:16;;;;;;;;;3.00;3.00;;;;;15.50;100.00;97484.78;6352031;27;96546;-60
2024/04/16 13:11:23;;;;;;;;;2.00;2.00;;;;;15.50;100.00;97512.75;6324273;27;94243;-60
2024/04/16 13:14:27;;;;;;;;;4.00;3.00;;;;;15.53;100.00;97504.06;6331652;27;96130;-61
2024/04/16 13:17:35;;;;;;;;;2.00;1.40;;;;;15.49;100.00;97496.75;6350870;27;94354;-62
2024/04/16 13:20:38;;;;;;;;;2.00;2.00;;;;;15.54;100.00;97491.31;6356313;27;94431;-60
2024/04/16 13:23:44;;;;;;;;;2.00;2.00;;;;;15.57;100.00;97469.81;6330293;27;94358;-60
2024/04/16 13:26:47;;;;;;;;;2.00;2.00;;;;;15.63;100.00;97469.75;6326874;27;96693;-60
2024/04/16 13:29:53;;;;;;;;;2.00;2.00;;;;;15.53;100.00;97457.91;6328276;27;94327;-60
2024/04/16 13:33:00;;;;;;;;;2.00;2.00;;;;;15.67;100.00;97451.78;6328470;27;94400;-60
2024/04/16 13:36:08;;;;;;;;;4.00;3.00;;;;;15.74;100.00;97452.22;6324537;27;94996;-60
2024/04/16 13:39:12;;;;;;;;;2.00;2.00;;;;;15.79;100.00;97484.75;6326055;27;94604;-60
2024/04/16 13:42:18;;;;;;;;;3.00;2.00;;;;;15.91;100.00;97486.00;6327452;27;94825;-60
2024/04/16 13:45:23;;;;;;;;;3.00;3.00;;;;;15.79;100.00;97482.03;6328670;27;94341;-60
2024/04/16 13:48:29;;;;;;;;;3.00;3.00;;;;;15.72;100.00;97485.13;6379794;27;95774;-60
2024/04/16 13:51:34;;;;;;;;;3.00;3.00;;;;;15.59;100.00;97483.88;6407250;27;94908;-60
2024/04/16 13:54:40;;;;;;;;;2.00;2.00;;;;;15.67;100.00;97487.09;6424385;27;94890;-61
2024/04/16 13:57:46;;;;;;;;;2.00;2.00;;;;;15.62;100.00;97479.81;6377419;27;94664;-60
2024/04/16 14:00:51;;;;;;;;;1.25;1.00;;;;;15.60;100.00;97476.56;6405551;27;94770;-60
2024/04/16 14:03:57;;;;;;;;;1.00;1.00;;;;;15.73;100.00;97464.19;6371873;27;94884;-60
2024/04/16 14:07:02;;;;;;;;;2.60;2.00;;;;;15.69;100.00;97461.22;6376153;27;95589;-60
2024/04/16 14:10:06;;;;;;;;;1.50;1.50;;;;;15.93;100.00;97461.25;6379186;27;94756;-61
2024/04/16 14:13:11;;;;;;;;;1.00;1.00;;;;;16.22;100.00;97451.09;6400441;27;96888;-60
2024/04/16 14:16:17;;;;;;;;;2.00;2.00;;;;;16.45;100.00;97455.66;6388769;27;94386;-61
2024/04/16 14:19:22;;;;;;;;;1.75;1.00;;;;;16.66;100.00;97448.03;6403796;27;94294;-61
2024/04/16 14:22:28;;;;;;;;;3.00;2.00;;;;;16.67;100.00;97463.22;6420368;27;94437;-61
2024/04/16 14:25:31;;;;;;;;;3.00;3.00;;;;;16.63;100.00;97455.94;6405097;27;94692;-60